Terminal Aerodrome Forecast
Issued by NWS Cleveland, OH

Home | Current Version | Previous Version | Text Only | Print | Product List | Glossary On
Versions: 1 2 3 4 5 6 7 8 9 10 11 12 13 14 15 16 17 18 19 20
000
FTUS41 KCLE 250900 AAA
TAFYNG
TAF AMD
KYNG 250949Z 2510/2606 24006KT 2SM -SN BR OVC004
     FM251200 27006KT 3SM BR OVC008
     FM251500 VRB04KT P6SM OVC012
     FM251900 03006KT 2SM -SN OVC008
     FM252200 03008KT 3/4SM -SN OVC004=

USA.gov is the U.S. government's official web portal to all federal, state and local government web resources and services.